Kingston, New Jersey
Current Conditions -  °F | °C
As of 12:53 AM on Wednesday 22 Oct 2014 (Local Time) from KTTN Reporting Station
Broken Clouds Broken Clouds  
Wind Chill: 54°   Ceiling: 6500
Heat Index: 54°   Visibility: 10mi
Dew Point: 49°   Wind: 8mph
Humidity: 83%   Direction: 10°N
Pressure: 29.88"   Gusts: NA
Location:  40.38°N, 74.61°W
Report Text: KTTN 220453Z AUTO 01007KT 10SM BKN065 BKN120 12/09 A2988 RMK AO2 SLP112 T01220094 402110094
Loading
Personal Weather Stations






























Interactive Weather Map
Tropical Storm Tracking
New forecast layout! Learn more

10-Day Weather Forecast

Advertisements
Track Severe Weather on mobile